N151ND 41TT-KODO
Flight info
| Callsign | N151ND |
|---|---|
| Flight time | 1h 36m |
| Altitude | 22000 |
| Route | JCT |
| Aircraft | B350/L-SBDFGRYZ/LB1 |
Departure
| Time | 2026-04-14 14:38 |
|---|---|
| Airport | Rancho Paraiso Airport (41TT) |
Arrival
| Time | 2026-04-14 16:14 |
|---|---|
| Airport | Odessa Schlemeyer Field (KODO) |
| Time | Latitude | Longitude | Altitude | Speed | Heading |
|---|---|---|---|---|---|
| 2026-04-14 14:25 | 30.18654 | -99.40762 | 2106 ft | 0 kts | 87° |
| 2026-04-14 14:34 | 30.18654 | -99.40744 | 2106 ft | 6 kts | 93° |
| 2026-04-14 14:35 | 30.18653 | -99.40726 | 2103 ft | 2 kts | 87° |
| 2026-04-14 14:35 | 30.18697 | -99.40712 | 2103 ft | 12 kts | 4° |
| 2026-04-14 14:35 | 30.18781 | -99.40707 | 2104 ft | 13 kts | 2° |
| 2026-04-14 14:35 | 30.18852 | -99.40693 | 2104 ft | 8 kts | 11° |
| 2026-04-14 14:36 | 30.18854 | -99.40703 | 2104 ft | 3 kts | 176° |
| 2026-04-14 14:36 | 30.18828 | -99.40703 | 2101 ft | 3 kts | 184° |
| 2026-04-14 14:36 | 30.18826 | -99.40704 | 2102 ft | 0 kts | 183° |
| 2026-04-14 14:37 | 30.18780 | -99.40706 | 2104 ft | 35 kts | 182° |
| 2026-04-14 14:37 | 30.18252 | -99.40740 | 2109 ft | 111 kts | 184° |
| 2026-04-14 14:38 | 30.17336 | -99.40805 | 2378 ft | 146 kts | 180° |
| 2026-04-14 14:38 | 30.16258 | -99.40867 | 2789 ft | 157 kts | 182° |
| 2026-04-14 14:38 | 30.15088 | -99.40924 | 3005 ft | 177 kts | 182° |
| 2026-04-14 14:38 | 30.14019 | -99.40304 | 3475 ft | 187 kts | 127° |
| 2026-04-14 14:39 | 30.13775 | -99.39287 | 3410 ft | 219 kts | 93° |
| 2026-04-14 14:39 | 30.15028 | -99.37236 | 3338 ft | 261 kts | 26° |
| 2026-04-14 14:39 | 30.16854 | -99.37060 | 3412 ft | 266 kts | 346° |
| 2026-04-14 14:39 | 30.18533 | -99.37921 | 3537 ft | 266 kts | 323° |
| 2026-04-14 14:40 | 30.20011 | -99.39288 | 3297 ft | 280 kts | 314° |
| 2026-04-14 14:40 | 30.21410 | -99.40888 | 3109 ft | 284 kts | 310° |
| 2026-04-14 14:40 | 30.22746 | -99.42520 | 3178 ft | 276 kts | 309° |
| 2026-04-14 14:40 | 30.24001 | -99.44082 | 3723 ft | 255 kts | 308° |
| 2026-04-14 14:41 | 30.25148 | -99.45550 | 4341 ft | 237 kts | 307° |
| 2026-04-14 14:41 | 30.26223 | -99.46922 | 4963 ft | 223 kts | 308° |
| 2026-04-14 14:41 | 30.27251 | -99.48199 | 5567 ft | 211 kts | 308° |
| 2026-04-14 14:41 | 30.28254 | -99.49407 | 6187 ft | 204 kts | 308° |
| 2026-04-14 14:42 | 30.29233 | -99.50556 | 6770 ft | 202 kts | 308° |
| 2026-04-14 14:42 | 30.30089 | -99.51806 | 7314 ft | 198 kts | 295° |
| 2026-04-14 14:42 | 30.30838 | -99.53169 | 7824 ft | 202 kts | 298° |
| 2026-04-14 14:42 | 30.31636 | -99.54513 | 8439 ft | 203 kts | 299° |
| 2026-04-14 14:43 | 30.32439 | -99.55865 | 9064 ft | 204 kts | 299° |
| 2026-04-14 14:43 | 30.33230 | -99.57213 | 9676 ft | 205 kts | 299° |
| 2026-04-14 14:43 | 30.34038 | -99.58591 | 10271 ft | 206 kts | 299° |
| 2026-04-14 14:43 | 30.34849 | -99.59976 | 10843 ft | 207 kts | 300° |
| 2026-04-14 14:44 | 30.35659 | -99.61363 | 11457 ft | 207 kts | 299° |
| 2026-04-14 14:44 | 30.36459 | -99.62731 | 12055 ft | 208 kts | 300° |
| 2026-04-14 14:44 | 30.37276 | -99.64130 | 12665 ft | 210 kts | 299° |
| 2026-04-14 14:44 | 30.38093 | -99.65532 | 13254 ft | 211 kts | 300° |
| 2026-04-14 14:45 | 30.38920 | -99.66947 | 13850 ft | 212 kts | 299° |
| 2026-04-14 14:45 | 30.39745 | -99.68365 | 14429 ft | 212 kts | 300° |
| 2026-04-14 14:45 | 30.40575 | -99.69782 | 14996 ft | 212 kts | 299° |
| 2026-04-14 14:45 | 30.41404 | -99.71202 | 15561 ft | 213 kts | 299° |
| 2026-04-14 14:46 | 30.42226 | -99.72612 | 16113 ft | 214 kts | 298° |
| 2026-04-14 14:46 | 30.43089 | -99.74101 | 16311 ft | 231 kts | 298° |
| 2026-04-14 14:46 | 30.44032 | -99.75726 | 16288 ft | 252 kts | 299° |
| 2026-04-14 14:46 | 30.45039 | -99.77446 | 16279 ft | 261 kts | 300° |
| 2026-04-14 14:47 | 30.46072 | -99.79213 | 16275 ft | 266 kts | 300° |
| 2026-04-14 14:47 | 30.47115 | -99.81015 | 16269 ft | 269 kts | 297° |
| 2026-04-14 14:47 | 30.47869 | -99.82983 | 16270 ft | 266 kts | 281° |
| 2026-04-14 14:47 | 30.47993 | -99.85051 | 16275 ft | 260 kts | 255° |
| 2026-04-14 14:48 | 30.47089 | -99.86829 | 16268 ft | 259 kts | 221° |
| 2026-04-14 14:48 | 30.45451 | -99.87694 | 16262 ft | 265 kts | 193° |
| 2026-04-14 14:48 | 30.43593 | -99.87699 | 16253 ft | 272 kts | 173° |
| 2026-04-14 14:48 | 30.41814 | -99.86892 | 16249 ft | 281 kts | 151° |
| 2026-04-14 14:49 | 30.40481 | -99.85200 | 16257 ft | 292 kts | 123° |
| 2026-04-14 14:49 | 30.39527 | -99.83150 | 16251 ft | 293 kts | 124° |
| 2026-04-14 14:49 | 30.38492 | -99.81112 | 16246 ft | 293 kts | 125° |
| 2026-04-14 14:49 | 30.37429 | -99.79044 | 15838 ft | 299 kts | 124° |
| 2026-04-14 14:50 | 30.36390 | -99.77001 | 15393 ft | 297 kts | 124° |
| 2026-04-14 14:50 | 30.35350 | -99.74930 | 14971 ft | 296 kts | 123° |
| 2026-04-14 14:50 | 30.34317 | -99.72866 | 14540 ft | 295 kts | 123° |
| 2026-04-14 14:50 | 30.33290 | -99.70819 | 14119 ft | 293 kts | 123° |
| 2026-04-14 14:51 | 30.32267 | -99.68780 | 13685 ft | 291 kts | 124° |
| 2026-04-14 14:51 | 30.31251 | -99.66763 | 13178 ft | 286 kts | 123° |
| 2026-04-14 14:51 | 30.30286 | -99.64820 | 12662 ft | 271 kts | 123° |
| 2026-04-14 14:51 | 30.29387 | -99.62991 | 12163 ft | 259 kts | 123° |
| 2026-04-14 14:52 | 30.28502 | -99.61211 | 11674 ft | 250 kts | 124° |
| 2026-04-14 14:52 | 30.27642 | -99.59498 | 11188 ft | 243 kts | 124° |
| 2026-04-14 14:52 | 30.26797 | -99.57829 | 10706 ft | 237 kts | 125° |
| 2026-04-14 14:52 | 30.25979 | -99.56213 | 10245 ft | 233 kts | 125° |
| 2026-04-14 14:53 | 30.25164 | -99.54606 | 9761 ft | 229 kts | 125° |
| 2026-04-14 14:53 | 30.24359 | -99.53017 | 9254 ft | 226 kts | 125° |
| 2026-04-14 14:53 | 30.23567 | -99.51454 | 8754 ft | 223 kts | 126° |
| 2026-04-14 14:53 | 30.23050 | -99.50432 | 8418 ft | 221 kts | 126° |
| 2026-04-14 14:54 | 30.22026 | -99.48407 | 7785 ft | 218 kts | 126° |
| 2026-04-14 14:54 | 30.21263 | -99.46898 | 7300 ft | 216 kts | 126° |
| 2026-04-14 14:54 | 30.20509 | -99.45408 | 6847 ft | 213 kts | 127° |
| 2026-04-14 14:54 | 30.19762 | -99.43932 | 6389 ft | 212 kts | 127° |
| 2026-04-14 14:55 | 30.19019 | -99.42459 | 5902 ft | 211 kts | 127° |
| 2026-04-14 14:55 | 30.18296 | -99.40994 | 5405 ft | 209 kts | 126° |
| 2026-04-14 14:55 | 30.17447 | -99.39721 | 4940 ft | 196 kts | 153° |
| 2026-04-14 14:55 | 30.16180 | -99.39550 | 4474 ft | 189 kts | 200° |
| 2026-04-14 14:56 | 30.15511 | -99.42153 | 4020 ft | 197 kts | 297° |
| 2026-04-14 14:56 | 30.16606 | -99.43012 | 3953 ft | 192 kts | 348° |
| 2026-04-14 14:56 | 30.17899 | -99.43082 | 3837 ft | 182 kts | 359° |
| 2026-04-14 14:57 | 30.19129 | -99.42952 | 3694 ft | 171 kts | 28° |
| 2026-04-14 14:57 | 30.19814 | -99.42015 | 3657 ft | 144 kts | 88° |
| 2026-04-14 14:57 | 30.19897 | -99.40913 | 3626 ft | 139 kts | 96° |
| 2026-04-14 14:57 | 30.19939 | -99.39766 | 3519 ft | 146 kts | 97° |
| 2026-04-14 14:58 | 30.19958 | -99.38553 | 3372 ft | 156 kts | 98° |
| 2026-04-14 14:58 | 30.20281 | -99.37334 | 3238 ft | 167 kts | 52° |
| 2026-04-14 14:58 | 30.21331 | -99.36849 | 3173 ft | 164 kts | 8° |
| 2026-04-14 14:58 | 30.22380 | -99.37042 | 3101 ft | 143 kts | 317° |
| 2026-04-14 14:59 | 30.22818 | -99.37892 | 3100 ft | 117 kts | 280° |
| 2026-04-14 14:59 | 30.22740 | -99.38741 | 2956 ft | 107 kts | 224° |
| 2026-04-14 14:59 | 30.22148 | -99.39170 | 2971 ft | 99 kts | 192° |
| 2026-04-14 14:59 | 30.21478 | -99.39335 | 2974 ft | 101 kts | 193° |
| 2026-04-14 15:00 | 30.21039 | -99.40041 | 2862 ft | 109 kts | 232° |
| 2026-04-14 15:00 | 30.20511 | -99.40542 | 2600 ft | 98 kts | 193° |
| 2026-04-14 15:00 | 30.19855 | -99.40652 | 2376 ft | 93 kts | 182° |
| 2026-04-14 15:00 | 30.19210 | -99.40681 | 2222 ft | 93 kts | 180° |
| 2026-04-14 15:01 | 30.18600 | -99.40719 | 2107 ft | 78 kts | 182° |
| 2026-04-14 15:01 | 30.18173 | -99.40746 | 2108 ft | 50 kts | 183° |
| 2026-04-14 15:01 | 30.18046 | -99.40755 | 2106 ft | 19 kts | 183° |
| 2026-04-14 15:01 | 30.17988 | -99.40759 | 2106 ft | 4 kts | 50° |
| 2026-04-14 15:02 | 30.18047 | -99.40755 | 2106 ft | 12 kts | 5° |
| 2026-04-14 15:02 | 30.18135 | -99.40749 | 2107 ft | 13 kts | 3° |
| 2026-04-14 15:02 | 30.18230 | -99.40741 | 2108 ft | 14 kts | 4° |
| 2026-04-14 15:02 | 30.18335 | -99.40736 | 2108 ft | 16 kts | 3° |
| 2026-04-14 15:03 | 30.18453 | -99.40727 | 2107 ft | 18 kts | 5° |
| 2026-04-14 15:03 | 30.18582 | -99.40718 | 2106 ft | 19 kts | 4° |
| 2026-04-14 15:03 | 30.18711 | -99.40712 | 2106 ft | 18 kts | 1° |
| 2026-04-14 15:03 | 30.18774 | -99.40747 | 2105 ft | 4 kts | 282° |
| 2026-04-14 15:04 | 30.18768 | -99.40751 | 2105 ft | 1 kts | 98° |
| 2026-04-14 15:04 | 30.18768 | -99.40749 | 2105 ft | 0 kts | 90° |
| 2026-04-14 15:21 | 30.18768 | -99.40747 | 2105 ft | 2 kts | 90° |
| 2026-04-14 15:21 | 30.18794 | -99.40706 | 2104 ft | 12 kts | 11° |
| 2026-04-14 15:21 | 30.18867 | -99.40694 | 2104 ft | 4 kts | 321° |
| 2026-04-14 15:21 | 30.18851 | -99.40702 | 2104 ft | 3 kts | 184° |
| 2026-04-14 15:22 | 30.18849 | -99.40702 | 2104 ft | 0 kts | 185° |
| 2026-04-14 15:22 | 30.18809 | -99.40705 | 2104 ft | 33 kts | 183° |
| 2026-04-14 15:23 | 30.18278 | -99.40738 | 2110 ft | 112 kts | 184° |
| 2026-04-14 15:23 | 30.17377 | -99.40819 | 2426 ft | 141 kts | 184° |
| 2026-04-14 15:23 | 30.16331 | -99.40955 | 2879 ft | 161 kts | 187° |
| 2026-04-14 15:23 | 30.15182 | -99.41019 | 3312 ft | 177 kts | 169° |
| 2026-04-14 15:24 | 30.14120 | -99.40044 | 3159 ft | 225 kts | 121° |
| 2026-04-14 15:24 | 30.13998 | -99.38189 | 3113 ft | 247 kts | 76° |
| 2026-04-14 15:24 | 30.15020 | -99.36571 | 3164 ft | 257 kts | 40° |
| 2026-04-14 15:24 | 30.16659 | -99.35778 | 3271 ft | 259 kts | 9° |
| 2026-04-14 15:25 | 30.18464 | -99.35961 | 3136 ft | 266 kts | 339° |
| 2026-04-14 15:25 | 30.20048 | -99.36966 | 3202 ft | 261 kts | 326° |
| 2026-04-14 15:25 | 30.21569 | -99.38049 | 3452 ft | 252 kts | 326° |
| 2026-04-14 15:25 | 30.23060 | -99.39154 | 3408 ft | 256 kts | 324° |
| 2026-04-14 15:26 | 30.24573 | -99.40270 | 3413 ft | 258 kts | 325° |
| 2026-04-14 15:26 | 30.26098 | -99.41385 | 3433 ft | 260 kts | 326° |
| 2026-04-14 15:26 | 30.27621 | -99.42514 | 3809 ft | 253 kts | 325° |
| 2026-04-14 15:26 | 30.29067 | -99.43588 | 4415 ft | 242 kts | 324° |
| 2026-04-14 15:27 | 30.30462 | -99.44621 | 5033 ft | 235 kts | 324° |
| 2026-04-14 15:27 | 30.31816 | -99.45624 | 5648 ft | 227 kts | 316° |
| 2026-04-14 15:27 | 30.32761 | -99.46977 | 6271 ft | 216 kts | 294° |
| 2026-04-14 15:27 | 30.33547 | -99.48453 | 6866 ft | 215 kts | 295° |
| 2026-04-14 15:28 | 30.34355 | -99.49910 | 7483 ft | 214 kts | 297° |
| 2026-04-14 15:28 | 30.35167 | -99.51359 | 8145 ft | 213 kts | 297° |
| 2026-04-14 15:28 | 30.35977 | -99.52801 | 8801 ft | 213 kts | 297° |
| 2026-04-14 15:28 | 30.36778 | -99.54219 | 9469 ft | 212 kts | 298° |
| 2026-04-14 15:29 | 30.37588 | -99.55648 | 10144 ft | 212 kts | 298° |
| 2026-04-14 15:29 | 30.38397 | -99.57076 | 10778 ft | 211 kts | 298° |
| 2026-04-14 15:29 | 30.39200 | -99.58487 | 11417 ft | 211 kts | 298° |
| 2026-04-14 15:29 | 30.40008 | -99.59917 | 12025 ft | 214 kts | 299° |
| 2026-04-14 15:30 | 30.40825 | -99.61362 | 12669 ft | 215 kts | 299° |
| 2026-04-14 15:30 | 30.41644 | -99.62813 | 13317 ft | 216 kts | 298° |
| 2026-04-14 15:30 | 30.42465 | -99.64265 | 14005 ft | 214 kts | 298° |
| 2026-04-14 15:30 | 30.43270 | -99.65693 | 14653 ft | 212 kts | 299° |
| 2026-04-14 15:31 | 30.44084 | -99.67128 | 15288 ft | 212 kts | 298° |
| 2026-04-14 15:31 | 30.44896 | -99.68566 | 15883 ft | 213 kts | 297° |
| 2026-04-14 15:31 | 30.45709 | -99.70007 | 16464 ft | 214 kts | 297° |
| 2026-04-14 15:31 | 30.46514 | -99.71434 | 17037 ft | 214 kts | 297° |
| 2026-04-14 15:32 | 30.47331 | -99.72881 | 17635 ft | 214 kts | 296° |
| 2026-04-14 15:32 | 30.48149 | -99.74329 | 18241 ft | 215 kts | 296° |
| 2026-04-14 15:32 | 30.48972 | -99.75787 | 18763 ft | 215 kts | 295° |
| 2026-04-14 15:32 | 30.49793 | -99.77242 | 19263 ft | 216 kts | 295° |
| 2026-04-14 15:33 | 30.50615 | -99.78698 | 19757 ft | 216 kts | 295° |
| 2026-04-14 15:33 | 30.51426 | -99.80136 | 20234 ft | 216 kts | 294° |
| 2026-04-14 15:33 | 30.52250 | -99.81599 | 20706 ft | 216 kts | 294° |
| 2026-04-14 15:33 | 30.53076 | -99.83066 | 21167 ft | 217 kts | 294° |
| 2026-04-14 15:34 | 30.53913 | -99.84557 | 21519 ft | 222 kts | 294° |
| 2026-04-14 15:34 | 30.54760 | -99.86071 | 21730 ft | 231 kts | 294° |
| 2026-04-14 15:34 | 30.55362 | -99.87148 | 21820 ft | 237 kts | 294° |
| 2026-04-14 15:34 | 30.56582 | -99.89329 | 21978 ft | 249 kts | 295° |
| 2026-04-14 15:35 | 30.57541 | -99.91033 | 22062 ft | 256 kts | 295° |
| 2026-04-14 15:35 | 30.58535 | -99.92795 | 22068 ft | 264 kts | 295° |
| 2026-04-14 15:35 | 30.59543 | -99.94581 | 22062 ft | 270 kts | 295° |
| 2026-04-14 15:35 | 30.60583 | -99.96423 | 22073 ft | 275 kts | 296° |
| 2026-04-14 15:36 | 30.61635 | -99.98290 | 22053 ft | 278 kts | 296° |
| 2026-04-14 15:36 | 30.62355 | -99.99568 | 22050 ft | 279 kts | 296° |
| 2026-04-14 15:36 | 30.63764 | -100.02076 | 22043 ft | 280 kts | 296° |
| 2026-04-14 15:36 | 30.64820 | -100.03959 | 22035 ft | 281 kts | 296° |
| 2026-04-14 15:37 | 30.65892 | -100.05875 | 22030 ft | 282 kts | 296° |
| 2026-04-14 15:37 | 30.66960 | -100.07783 | 22021 ft | 282 kts | 296° |
| 2026-04-14 15:37 | 30.68033 | -100.09699 | 22015 ft | 282 kts | 296° |
| 2026-04-14 15:37 | 30.68743 | -100.10969 | 22013 ft | 283 kts | 296° |
| 2026-04-14 15:38 | 30.70175 | -100.13532 | 22009 ft | 283 kts | 296° |
| 2026-04-14 15:38 | 30.71235 | -100.15430 | 22015 ft | 283 kts | 296° |
| 2026-04-14 15:38 | 30.72311 | -100.17358 | 22009 ft | 284 kts | 296° |
| 2026-04-14 15:38 | 30.73385 | -100.19285 | 22010 ft | 284 kts | 296° |
| 2026-04-14 15:39 | 30.74461 | -100.21215 | 22012 ft | 284 kts | 296° |
| 2026-04-14 15:39 | 30.75539 | -100.23149 | 22013 ft | 284 kts | 296° |
| 2026-04-14 15:39 | 30.76601 | -100.25055 | 22017 ft | 284 kts | 296° |
| 2026-04-14 15:39 | 30.77678 | -100.26990 | 22015 ft | 285 kts | 296° |
| 2026-04-14 15:40 | 30.78758 | -100.28929 | 22019 ft | 285 kts | 296° |
| 2026-04-14 15:40 | 30.79834 | -100.30864 | 22012 ft | 285 kts | 296° |
| 2026-04-14 15:40 | 30.80916 | -100.32809 | 22018 ft | 285 kts | 296° |
| 2026-04-14 15:40 | 30.81997 | -100.34753 | 22023 ft | 286 kts | 296° |
| 2026-04-14 15:41 | 30.83078 | -100.36697 | 22026 ft | 286 kts | 296° |
| 2026-04-14 15:41 | 30.84145 | -100.38619 | 22030 ft | 286 kts | 296° |
| 2026-04-14 15:41 | 30.85225 | -100.40567 | 22031 ft | 286 kts | 296° |
| 2026-04-14 15:41 | 30.86308 | -100.42518 | 22033 ft | 287 kts | 296° |
| 2026-04-14 15:42 | 30.87389 | -100.44470 | 22030 ft | 287 kts | 296° |
| 2026-04-14 15:42 | 30.88476 | -100.46430 | 22028 ft | 287 kts | 296° |
| 2026-04-14 15:42 | 30.89549 | -100.48367 | 22026 ft | 288 kts | 296° |
| 2026-04-14 15:42 | 30.90634 | -100.50326 | 22031 ft | 288 kts | 296° |
| 2026-04-14 15:43 | 30.91721 | -100.52290 | 22027 ft | 288 kts | 296° |
| 2026-04-14 15:43 | 30.92806 | -100.54252 | 22026 ft | 288 kts | 296° |
| 2026-04-14 15:43 | 30.93892 | -100.56217 | 22028 ft | 288 kts | 296° |
| 2026-04-14 15:43 | 30.94967 | -100.58162 | 22024 ft | 288 kts | 296° |
| 2026-04-14 15:44 | 30.96053 | -100.60127 | 22023 ft | 288 kts | 296° |
| 2026-04-14 15:44 | 30.97137 | -100.62093 | 22024 ft | 288 kts | 296° |
| 2026-04-14 15:44 | 30.97854 | -100.63394 | 22026 ft | 288 kts | 296° |
| 2026-04-14 15:44 | 30.99307 | -100.66028 | 22022 ft | 288 kts | 296° |
| 2026-04-14 15:45 | 31.00389 | -100.67992 | 22023 ft | 288 kts | 296° |
| 2026-04-14 15:45 | 31.01460 | -100.69937 | 22022 ft | 288 kts | 296° |
| 2026-04-14 15:45 | 31.02549 | -100.71915 | 22021 ft | 288 kts | 296° |
| 2026-04-14 15:45 | 31.03636 | -100.73891 | 22025 ft | 289 kts | 296° |
| 2026-04-14 15:46 | 31.04708 | -100.75840 | 22020 ft | 289 kts | 296° |
| 2026-04-14 15:46 | 31.05795 | -100.77817 | 22020 ft | 288 kts | 296° |
| 2026-04-14 15:46 | 31.06882 | -100.79797 | 22014 ft | 288 kts | 295° |
| 2026-04-14 15:46 | 31.07964 | -100.81767 | 22015 ft | 288 kts | 295° |
| 2026-04-14 15:47 | 31.08681 | -100.83073 | 22015 ft | 288 kts | 295° |
| 2026-04-14 15:47 | 31.10127 | -100.85708 | 22014 ft | 288 kts | 295° |
| 2026-04-14 15:47 | 31.11194 | -100.87655 | 22011 ft | 288 kts | 295° |
| 2026-04-14 15:47 | 31.12274 | -100.89624 | 22010 ft | 288 kts | 295° |
| 2026-04-14 15:48 | 31.13353 | -100.91594 | 22010 ft | 288 kts | 295° |
| 2026-04-14 15:48 | 31.14068 | -100.92901 | 22013 ft | 288 kts | 295° |
| 2026-04-14 15:48 | 31.15510 | -100.95538 | 22001 ft | 287 kts | 295° |
| 2026-04-14 15:48 | 31.16221 | -100.96837 | 22003 ft | 286 kts | 295° |
| 2026-04-14 15:49 | 31.17653 | -100.99461 | 22000 ft | 286 kts | 295° |
| 2026-04-14 15:49 | 31.18710 | -101.01396 | 22001 ft | 286 kts | 295° |
| 2026-04-14 15:49 | 31.19433 | -101.02720 | 22001 ft | 286 kts | 295° |
| 2026-04-14 15:49 | 31.20851 | -101.05320 | 21995 ft | 285 kts | 295° |
| 2026-04-14 15:50 | 31.21921 | -101.07280 | 21995 ft | 286 kts | 295° |
| 2026-04-14 15:50 | 31.22977 | -101.09214 | 21994 ft | 285 kts | 295° |
| 2026-04-14 15:50 | 31.24045 | -101.11174 | 21993 ft | 285 kts | 295° |
| 2026-04-14 15:50 | 31.25113 | -101.13135 | 21994 ft | 285 kts | 295° |
| 2026-04-14 15:51 | 31.26179 | -101.15092 | 21995 ft | 285 kts | 294° |
| 2026-04-14 15:51 | 31.27236 | -101.17033 | 21992 ft | 285 kts | 294° |
| 2026-04-14 15:51 | 31.27954 | -101.18352 | 21990 ft | 285 kts | 294° |
| 2026-04-14 15:51 | 31.29364 | -101.20950 | 21991 ft | 285 kts | 294° |
| 2026-04-14 15:52 | 31.30431 | -101.22912 | 21985 ft | 285 kts | 294° |
| 2026-04-14 15:52 | 31.31496 | -101.24873 | 21985 ft | 285 kts | 294° |
| 2026-04-14 15:52 | 31.32563 | -101.26838 | 21984 ft | 286 kts | 294° |
| 2026-04-14 15:52 | 31.33626 | -101.28798 | 21983 ft | 286 kts | 294° |
| 2026-04-14 15:53 | 31.34679 | -101.30741 | 21983 ft | 286 kts | 294° |
| 2026-04-14 15:53 | 31.35397 | -101.32067 | 21981 ft | 286 kts | 294° |
| 2026-04-14 15:53 | 31.36809 | -101.34670 | 21979 ft | 286 kts | 294° |
| 2026-04-14 15:53 | 31.37875 | -101.36636 | 21982 ft | 286 kts | 294° |
| 2026-04-14 15:54 | 31.40004 | -101.40573 | 21972 ft | 286 kts | 294° |
| 2026-04-14 15:54 | 31.41070 | -101.42545 | 21973 ft | 286 kts | 294° |
| 2026-04-14 15:54 | 31.42121 | -101.44492 | 21974 ft | 286 kts | 294° |
| 2026-04-14 15:55 | 31.42827 | -101.45800 | 21977 ft | 286 kts | 294° |
| 2026-04-14 15:55 | 31.43891 | -101.47772 | 21974 ft | 286 kts | 294° |
| 2026-04-14 15:55 | 31.45319 | -101.50418 | 21968 ft | 286 kts | 294° |
| 2026-04-14 15:55 | 31.46025 | -101.51726 | 21966 ft | 286 kts | 294° |
| 2026-04-14 15:56 | 31.47089 | -101.53699 | 21966 ft | 286 kts | 294° |
| 2026-04-14 15:56 | 31.48506 | -101.56333 | 21807 ft | 291 kts | 294° |
| 2026-04-14 15:56 | 31.49604 | -101.58375 | 21407 ft | 302 kts | 295° |
| 2026-04-14 15:56 | 31.50747 | -101.60484 | 20951 ft | 311 kts | 295° |
| 2026-04-14 15:57 | 31.51929 | -101.62644 | 20510 ft | 317 kts | 295° |
| 2026-04-14 15:57 | 31.52722 | -101.64090 | 20220 ft | 318 kts | 295° |
| 2026-04-14 15:57 | 31.53916 | -101.66272 | 19789 ft | 317 kts | 295° |
| 2026-04-14 15:57 | 31.55473 | -101.69159 | 19220 ft | 316 kts | 295° |
| 2026-04-14 15:58 | 31.56265 | -101.70633 | 18943 ft | 315 kts | 295° |
| 2026-04-14 15:58 | 31.57411 | -101.72785 | 18539 ft | 314 kts | 295° |
| 2026-04-14 15:58 | 31.58565 | -101.74960 | 18108 ft | 313 kts | 295° |
| 2026-04-14 15:58 | 31.58691 | -101.75198 | 18061 ft | 313 kts | 295° |
| 2026-04-14 15:59 | 31.58736 | -101.75282 | 18040 ft | 313 kts | 295° |
| 2026-04-14 15:59 | 31.59749 | -101.77142 | 17631 ft | 313 kts | 296° |
| 2026-04-14 16:00 | 31.60112 | -101.77787 | 17490 ft | 313 kts | 297° |
| 2026-04-14 16:00 | 31.61316 | -101.79911 | 17028 ft | 310 kts | 296° |
| 2026-04-14 16:00 | 31.62459 | -101.82017 | 16575 ft | 306 kts | 295° |
| 2026-04-14 16:00 | 31.63568 | -101.84140 | 16122 ft | 303 kts | 295° |
| 2026-04-14 16:01 | 31.64659 | -101.86253 | 15680 ft | 302 kts | 295° |
| 2026-04-14 16:01 | 31.65753 | -101.88362 | 15247 ft | 302 kts | 295° |
| 2026-04-14 16:01 | 31.66847 | -101.90469 | 14815 ft | 302 kts | 295° |
| 2026-04-14 16:01 | 31.67951 | -101.92574 | 14390 ft | 303 kts | 295° |
| 2026-04-14 16:02 | 31.69064 | -101.94680 | 13979 ft | 303 kts | 296° |
| 2026-04-14 16:02 | 31.70181 | -101.96787 | 13548 ft | 304 kts | 296° |
| 2026-04-14 16:02 | 31.71301 | -101.98892 | 13096 ft | 304 kts | 296° |
| 2026-04-14 16:02 | 31.72412 | -102.00969 | 12644 ft | 290 kts | 297° |
| 2026-04-14 16:03 | 31.73423 | -102.02890 | 12203 ft | 270 kts | 296° |
| 2026-04-14 16:03 | 31.74367 | -102.04735 | 11763 ft | 257 kts | 296° |
| 2026-04-14 16:03 | 31.75305 | -102.06521 | 11333 ft | 256 kts | 297° |
| 2026-04-14 16:03 | 31.76252 | -102.08281 | 10902 ft | 254 kts | 298° |
| 2026-04-14 16:04 | 31.77197 | -102.10030 | 10483 ft | 252 kts | 298° |
| 2026-04-14 16:04 | 31.78132 | -102.11771 | 10067 ft | 249 kts | 298° |
| 2026-04-14 16:04 | 31.78742 | -102.12915 | 9786 ft | 248 kts | 298° |
| 2026-04-14 16:04 | 31.79952 | -102.15188 | 9190 ft | 247 kts | 299° |
| 2026-04-14 16:05 | 31.80553 | -102.16317 | 8895 ft | 245 kts | 299° |
| 2026-04-14 16:05 | 31.81672 | -102.18426 | 8338 ft | 234 kts | 299° |
| 2026-04-14 16:06 | 31.82234 | -102.19494 | 8043 ft | 228 kts | 298° |
| 2026-04-14 16:06 | 31.83051 | -102.21053 | 7657 ft | 218 kts | 299° |
| 2026-04-14 16:06 | 31.83833 | -102.22544 | 7239 ft | 212 kts | 300° |
| 2026-04-14 16:06 | 31.84599 | -102.23991 | 6817 ft | 209 kts | 300° |
| 2026-04-14 16:07 | 31.85366 | -102.25433 | 6390 ft | 206 kts | 300° |
| 2026-04-14 16:07 | 31.86120 | -102.26852 | 5944 ft | 203 kts | 299° |
| 2026-04-14 16:07 | 31.86864 | -102.28258 | 5507 ft | 201 kts | 298° |
| 2026-04-14 16:07 | 31.87606 | -102.29661 | 5043 ft | 203 kts | 300° |
| 2026-04-14 16:08 | 31.88104 | -102.30589 | 4824 ft | 199 kts | 300° |
| 2026-04-14 16:08 | 31.89104 | -102.32372 | 4637 ft | 195 kts | 301° |
| 2026-04-14 16:08 | 31.89931 | -102.33593 | 4565 ft | 190 kts | 320° |
| 2026-04-14 16:08 | 31.90743 | -102.33936 | 4529 ft | 188 kts | 355° |
| 2026-04-14 16:09 | 31.92381 | -102.33355 | 4525 ft | 186 kts | 23° |
| 2026-04-14 16:09 | 31.93497 | -102.32751 | 4509 ft | 169 kts | 26° |
| 2026-04-14 16:09 | 31.94552 | -102.32228 | 4415 ft | 166 kts | 9° |
| 2026-04-14 16:09 | 31.95581 | -102.32525 | 4341 ft | 144 kts | 311° |
| 2026-04-14 16:10 | 31.95955 | -102.33532 | 4212 ft | 132 kts | 266° |
| 2026-04-14 16:10 | 31.95615 | -102.34405 | 4194 ft | 117 kts | 217° |
| 2026-04-14 16:10 | 31.94848 | -102.34779 | 4041 ft | 120 kts | 190° |
| 2026-04-14 16:10 | 31.94083 | -102.34587 | 4035 ft | 122 kts | 143° |
| 2026-04-14 16:11 | 31.93859 | -102.33621 | 4030 ft | 138 kts | 73° |
| 2026-04-14 16:11 | 31.94606 | -102.32897 | 4057 ft | 140 kts | 12° |
| 2026-04-14 16:11 | 31.95524 | -102.33071 | 4106 ft | 136 kts | 323° |
| 2026-04-14 16:11 | 31.96141 | -102.33873 | 4175 ft | 131 kts | 295° |
| 2026-04-14 16:12 | 31.96589 | -102.34835 | 4173 ft | 136 kts | 290° |
| 2026-04-14 16:12 | 31.96882 | -102.35819 | 4342 ft | 123 kts | 262° |
| 2026-04-14 16:12 | 31.96353 | -102.36558 | 4101 ft | 136 kts | 197° |
| 2026-04-14 16:12 | 31.95452 | -102.36793 | 3949 ft | 127 kts | 195° |
| 2026-04-14 16:13 | 31.94628 | -102.37162 | 3717 ft | 126 kts | 203° |
| 2026-04-14 16:13 | 31.93867 | -102.37632 | 3485 ft | 120 kts | 207° |
| 2026-04-14 16:13 | 31.93157 | -102.38108 | 3196 ft | 115 kts | 206° |
| 2026-04-14 16:13 | 31.92492 | -102.38547 | 2996 ft | 98 kts | 206° |
| 2026-04-14 16:14 | 31.92008 | -102.38864 | 2982 ft | 53 kts | 209° |
| 2026-04-14 16:14 | 31.91859 | -102.38964 | 2978 ft | 14 kts | 210° |
| 2026-04-14 16:14 | 31.91795 | -102.39008 | 2976 ft | 9 kts | 211° |
| 2026-04-14 16:14 | 31.91803 | -102.39067 | 2976 ft | 10 kts | 296° |
| 2026-04-14 16:15 | 31.91843 | -102.39148 | 2975 ft | 6 kts | 300° |
| 2026-04-14 16:15 | 31.91887 | -102.39140 | 2976 ft | 10 kts | 31° |
| 2026-04-14 16:15 | 31.91950 | -102.39097 | 2977 ft | 10 kts | 26° |
| 2026-04-14 16:15 | 31.92024 | -102.39070 | 2978 ft | 12 kts | 360° |
| 2026-04-14 16:16 | 31.92117 | -102.39096 | 2978 ft | 15 kts | 344° |
| 2026-04-14 16:16 | 31.92214 | -102.39127 | 2980 ft | 14 kts | 344° |
| 2026-04-14 16:16 | 31.92276 | -102.39160 | 2981 ft | 9 kts | 278° |
| 2026-04-14 16:16 | 31.92273 | -102.39223 | 2980 ft | 4 kts | 241° |
| 2026-04-14 16:17 | 31.92264 | -102.39238 | 2980 ft | 0 kts | 235° |
| 2026-04-14 16:30 | 31.92263 | -102.39241 | 2980 ft | 1 kts | 274° |
| 2026-04-14 16:30 | 31.92275 | -102.39241 | 2980 ft | 6 kts | 45° |
| 2026-04-14 16:30 | 31.92317 | -102.39165 | 2981 ft | 10 kts | 3° |
| 2026-04-14 16:31 | 31.92389 | -102.39183 | 2980 ft | 13 kts | 348° |
| 2026-04-14 16:31 | 31.92458 | -102.39272 | 2980 ft | 16 kts | 302° |
| 2026-04-14 16:31 | 31.92514 | -102.39382 | 2981 ft | 13 kts | 302° |
| 2026-04-14 16:31 | 31.92552 | -102.39399 | 2981 ft | 3 kts | 33° |
| 2026-04-14 16:32 | 31.92577 | -102.39382 | 2980 ft | 6 kts | 30° |
| 2026-04-14 16:32 | 31.92622 | -102.39345 | 2979 ft | 5 kts | 79° |
| 2026-04-14 16:32 | 31.92617 | -102.39328 | 2979 ft | 0 kts | 120° |
| 2026-04-14 16:33 | 31.92570 | -102.39238 | 2979 ft | 54 kts | 121° |
| 2026-04-14 16:33 | 31.92218 | -102.38551 | 3014 ft | 131 kts | 126° |
| 2026-04-14 16:34 | 31.91674 | -102.37555 | 3318 ft | 155 kts | 126° |
| 2026-04-14 16:34 | 31.91033 | -102.36441 | 3798 ft | 176 kts | 129° |
| 2026-04-14 16:34 | 31.90811 | -102.36044 | 3948 ft | 183 kts | 126° |
| 2026-04-14 16:34 | 31.90403 | -102.33868 | 3985 ft | 227 kts | 84° |
| 2026-04-14 16:35 | 31.91348 | -102.31629 | 4109 ft | 235 kts | 54° |
| 2026-04-14 16:35 | 31.91985 | -102.30595 | 4147 ft | 237 kts | 54° |
| 2026-04-14 16:36 | 31.95760 | -102.24674 | 4012 ft | 234 kts | 54° |
| 2026-04-14 16:36 | 31.98299 | -102.20819 | 3957 ft | 222 kts | 52° |
| 2026-04-14 16:37 | 31.98675 | -102.20248 | 3961 ft | 220 kts | 53° |
| 2026-04-14 16:37 | 31.98746 | -102.20138 | 3965 ft | 220 kts | 53° |
| 2026-04-14 16:38 | 31.99369 | -102.19210 | 3966 ft | 216 kts | 51° |
| 2026-04-14 16:38 | 32.00603 | -102.17382 | 3970 ft | 213 kts | 56° |
| 2026-04-14 16:38 | 32.01365 | -102.15947 | 3959 ft | 200 kts | 62° |
| 2026-04-14 16:38 | 32.01925 | -102.14499 | 3944 ft | 189 kts | 72° |
| 2026-04-14 16:39 | 32.02191 | -102.13536 | 3967 ft | 184 kts | 75° |
| 2026-04-14 16:39 | 32.02708 | -102.11600 | 4002 ft | 189 kts | 76° |
| 2026-04-14 16:39 | 32.02966 | -102.10609 | 3989 ft | 191 kts | 76° |
| 2026-04-14 16:39 | 32.03354 | -102.09105 | 3993 ft | 186 kts | 76° |
| 2026-04-14 16:40 | 32.04080 | -102.07468 | 3974 ft | 169 kts | 32° |
| 2026-04-14 16:40 | 32.05175 | -102.07245 | 3999 ft | 159 kts | 351° |
| 2026-04-14 16:40 | 32.06223 | -102.07432 | 3988 ft | 145 kts | 337° |
| 2026-04-14 16:40 | 32.06895 | -102.08179 | 3857 ft | 131 kts | 280° |
| 2026-04-14 16:41 | 32.06852 | -102.09190 | 3808 ft | 121 kts | 252° |
| 2026-04-14 16:41 | 32.06700 | -102.09810 | 3814 ft | 117 kts | 243° |
| 2026-04-14 16:41 | 32.05784 | -102.10459 | 3596 ft | 117 kts | 198° |
| 2026-04-14 16:41 | 32.05029 | -102.10613 | 3301 ft | 105 kts | 174° |
| 2026-04-14 16:42 | 32.04313 | -102.10410 | 2994 ft | 106 kts | 168° |
| 2026-04-14 16:42 | 32.03651 | -102.10201 | 2805 ft | 87 kts | 166° |
| 2026-04-14 16:42 | 32.03177 | -102.10054 | 2796 ft | 56 kts | 164° |
| 2026-04-14 16:42 | 32.03030 | -102.10008 | 2801 ft | 11 kts | 165° |
| 2026-04-14 16:43 | 32.02930 | -102.09977 | 2804 ft | 12 kts | 165° |
| 2026-04-14 16:43 | 32.02855 | -102.09954 | 2806 ft | 9 kts | 166° |
| 2026-04-14 16:43 | 32.02819 | -102.09938 | 2802 ft | 7 kts | 137° |
| 2026-04-14 16:43 | 32.02827 | -102.09862 | 2806 ft | 12 kts | 47° |
| 2026-04-14 16:44 | 32.02915 | -102.09843 | 2804 ft | 13 kts | 3° |
| 2026-04-14 16:44 | 32.03004 | -102.09835 | 2802 ft | 13 kts | 3° |
| 2026-04-14 16:44 | 32.03100 | -102.09829 | 2797 ft | 13 kts | 3° |
| 2026-04-14 16:45 | 32.03238 | -102.09818 | 2797 ft | 9 kts | 3° |
| 2026-04-14 16:45 | 32.03253 | -102.09744 | 2800 ft | 11 kts | 92° |
| 2026-04-14 16:45 | 32.03249 | -102.09671 | 2800 ft | 10 kts | 95° |
| 2026-04-14 16:45 | 32.03239 | -102.09607 | 2797 ft | 9 kts | 95° |
| 2026-04-14 16:46 | 32.03237 | -102.09552 | 2800 ft | 6 kts | 86° |
| 2026-04-14 16:46 | 32.03243 | -102.09545 | 2800 ft | 0 kts | 6° |